createdAt,value
2022-12-26T00:04:54.493Z,80.99
2022-12-26T00:09:51.485Z,79.85
2022-12-26T00:14:49.207Z,79.66
2022-12-26T00:19:46.283Z,78.56
2022-12-26T00:24:43.099Z,78.60
2022-12-26T00:29:39.926Z,78.65
2022-12-26T00:34:40.616Z,77.88
2022-12-26T00:39:37.866Z,77.89
2022-12-26T00:44:34.651Z,77.44
2022-12-26T00:50:11.310Z,77.61
2022-12-26T00:54:49.000Z,77.42
2022-12-26T00:59:45.848Z,77.11
2022-12-26T01:04:42.956Z,77.00
2022-12-26T01:09:40.020Z,77.06
2022-12-26T01:14:37.667Z,77.39
2022-12-26T01:19:34.509Z,77.05
2022-12-26T01:24:31.631Z,76.82
2022-12-26T01:29:28.573Z,76.81
2022-12-26T01:34:26.277Z,76.71
2022-12-26T01:39:23.550Z,76.62
2022-12-26T01:44:57.968Z,77.02
2022-12-26T01:49:56.360Z,76.82
2022-12-26T01:54:55.226Z,76.21
2022-12-26T01:59:53.141Z,76.27
2022-12-26T02:05:10.389Z,76.83
2022-12-26T02:10:13.088Z,76.02
2022-12-26T02:15:12.692Z,76.86
2022-12-26T02:20:18.089Z,76.35
2022-12-26T02:25:45.636Z,76.61
2022-12-26T02:30:49.522Z,76.63
2022-12-26T02:36:16.356Z,76.27
2022-12-26T02:41:26.270Z,76.73
2022-12-26T02:46:50.853Z,76.54
2022-12-26T02:52:18.214Z,76.08
2022-12-26T02:57:43.280Z,76.52
2022-12-26T03:03:04.156Z,76.00
2022-12-26T03:08:20.840Z,75.77
2022-12-26T03:13:23.108Z,76.13
2022-12-26T03:18:59.001Z,76.12
2022-12-26T03:23:42.799Z,75.66
2022-12-26T03:28:41.305Z,76.03
2022-12-26T03:33:59.462Z,75.40
2022-12-26T03:39:08.021Z,75.44
2022-12-26T03:44:38.455Z,75.23
2022-12-26T03:50:02.582Z,74.58
2022-12-26T03:55:25.068Z,74.42
2022-12-26T04:00:40.584Z,75.04
2022-12-26T04:06:00.767Z,74.44
2022-12-26T04:11:19.878Z,74.87
2022-12-26T04:16:37.601Z,74.87
2022-12-26T04:22:02.905Z,74.52
2022-12-26T04:27:23.980Z,74.22
2022-12-26T04:32:47.605Z,74.59
2022-12-26T04:38:04.960Z,74.63
2022-12-26T04:43:49.424Z,74.80
2022-12-26T04:49:02.184Z,75.36
2022-12-26T04:53:59.703Z,75.25
2022-12-26T04:58:57.975Z,75.03
2022-12-26T05:04:13.100Z,75.26
2022-12-26T05:09:31.618Z,75.13
2022-12-26T05:14:28.742Z,75.13
2022-12-26T05:19:43.367Z,74.89
2022-12-26T05:24:59.935Z,74.97
2022-12-26T05:29:56.986Z,74.94
2022-12-26T05:34:53.824Z,74.85
2022-12-26T05:39:51.427Z,75.12
2022-12-26T05:44:48.251Z,74.72
2022-12-26T05:49:45.262Z,74.55
2022-12-26T05:54:42.175Z,74.59
2022-12-26T05:59:39.931Z,75.21
2022-12-26T06:04:36.888Z,75.09
2022-12-26T06:09:33.888Z,74.90
2022-12-26T06:14:30.784Z,75.27
2022-12-26T06:19:28.449Z,75.04
2022-12-26T06:24:25.409Z,75.05
2022-12-26T06:29:23.072Z,75.34
2022-12-26T06:34:20.049Z,74.95
2022-12-26T06:39:17.544Z,74.92
2022-12-26T06:44:18.093Z,74.69
2022-12-26T06:49:15.833Z,75.06
2022-12-26T06:54:12.787Z,74.71
2022-12-26T06:59:11.583Z,74.82
2022-12-26T07:04:09.840Z,74.12
2022-12-26T07:09:09.239Z,73.91
2022-12-26T07:14:06.552Z,74.38
2022-12-26T07:19:07.667Z,74.28
2022-12-26T07:24:04.942Z,73.92
2022-12-26T07:29:01.882Z,73.45
2022-12-26T07:33:58.901Z,74.33
2022-12-26T07:38:56.877Z,74.41
2022-12-26T07:43:53.872Z,74.11
2022-12-26T07:48:50.789Z,74.58
2022-12-26T07:53:48.380Z,74.39
2022-12-26T07:58:49.635Z,75.02
2022-12-26T08:03:48.098Z,74.37
2022-12-26T08:08:50.544Z,74.61
2022-12-26T08:13:52.294Z,74.09
2022-12-26T08:18:51.117Z,73.88
2022-12-26T08:23:48.038Z,74.21
2022-12-26T08:28:48.521Z,73.75
2022-12-26T08:33:46.214Z,73.51
2022-12-26T08:38:46.727Z,73.58
2022-12-26T08:44:25.201Z,73.61
2022-12-26T08:49:02.192Z,73.60
2022-12-26T08:53:58.999Z,73.24
2022-12-26T08:58:56.121Z,72.74
2022-12-26T09:03:53.766Z,72.39
2022-12-26T09:08:51.997Z,72.32
2022-12-26T09:13:49.582Z,72.07
2022-12-26T09:18:47.680Z,72.58
2022-12-26T09:23:45.226Z,72.27
2022-12-26T09:28:43.401Z,72.29
2022-12-26T09:33:42.612Z,72.23
2022-12-26T09:38:39.610Z,71.78
2022-12-26T09:43:53.062Z,71.36
2022-12-26T09:48:58.097Z,71.22
2022-12-26T09:53:56.037Z,71.14
2022-12-26T09:58:57.395Z,71.26
2022-12-26T10:03:56.283Z,71.05
2022-12-26T10:09:07.170Z,70.82
2022-12-26T10:14:15.148Z,70.95
2022-12-26T10:19:53.452Z,70.75
2022-12-26T10:24:52.031Z,70.88
2022-12-26T10:29:55.281Z,70.95
2022-12-26T10:34:53.394Z,71.07
2022-12-26T10:39:56.012Z,70.98
2022-12-26T10:44:55.549Z,71.07
2022-12-26T10:49:53.788Z,70.91
2022-12-26T10:55:28.857Z,70.69
2022-12-26T11:00:20.151Z,70.22
2022-12-26T11:05:48.499Z,70.26
2022-12-26T11:10:40.691Z,70.62
2022-12-26T11:15:41.917Z,70.29
2022-12-26T11:20:38.841Z,69.43
2022-12-26T11:25:48.285Z,67.58
2022-12-26T11:30:47.993Z,68.56
2022-12-26T11:35:55.208Z,66.08
2022-12-26T11:41:06.664Z,67.71
2022-12-26T11:46:04.574Z,67.55
2022-12-26T11:51:01.922Z,67.84
2022-12-26T11:56:01.262Z,67.29
2022-12-26T12:01:10.150Z,66.34
2022-12-26T12:06:19.966Z,66.55
2022-12-26T12:11:25.440Z,66.06
2022-12-26T12:16:51.941Z,66.92
2022-12-26T12:22:08.428Z,66.46
2022-12-26T12:27:13.472Z,66.06
2022-12-26T12:32:17.341Z,65.72
2022-12-26T12:37:52.627Z,64.75
2022-12-26T12:42:59.440Z,65.00
2022-12-26T12:48:11.636Z,65.75
2022-12-26T12:53:22.494Z,64.23
2022-12-26T12:58:27.401Z,64.29
2022-12-26T13:03:39.362Z,64.45
2022-12-26T13:08:42.855Z,64.90
2022-12-26T13:13:48.526Z,64.89
2022-12-26T13:18:53.807Z,65.05
2022-12-26T13:24:26.915Z,65.23
2022-12-26T13:29:35.842Z,64.70
2022-12-26T13:34:38.454Z,64.44
2022-12-26T13:39:39.512Z,64.85
2022-12-26T13:44:37.316Z,65.33
2022-12-26T13:49:38.444Z,65.64
2022-12-26T13:54:58.325Z,65.55
2022-12-26T14:00:14.425Z,65.99
2022-12-26T14:05:21.934Z,66.54
2022-12-26T14:10:25.187Z,66.73
2022-12-26T14:15:33.510Z,66.78
2022-12-26T14:20:41.460Z,66.90
2022-12-26T14:25:52.155Z,67.11
2022-12-26T14:30:59.687Z,67.29
2022-12-26T14:36:08.009Z,67.87
2022-12-26T14:41:08.470Z,67.80
2022-12-26T14:46:46.577Z,68.10
2022-12-26T14:51:43.874Z,68.25
2022-12-26T14:56:41.725Z,68.55
2022-12-26T15:02:02.285Z,68.59
2022-12-26T15:07:36.261Z,68.93
2022-12-26T15:13:17.525Z,69.23
2022-12-26T15:18:47.910Z,69.46
2022-12-26T15:25:08.648Z,69.47
2022-12-26T15:30:33.437Z,69.57
2022-12-26T15:35:46.313Z,69.88
2022-12-26T15:40:46.104Z,70.07
2022-12-26T15:45:48.657Z,70.14
2022-12-26T15:50:56.779Z,70.49
2022-12-26T15:56:07.896Z,70.45
2022-12-26T16:01:11.437Z,70.67
2022-12-26T16:06:27.119Z,70.75
2022-12-26T16:11:29.375Z,70.82
2022-12-26T16:16:32.380Z,71.01
2022-12-26T16:21:52.665Z,70.99
2022-12-26T16:26:51.235Z,70.99
2022-12-26T16:31:50.549Z,71.56
2022-12-26T16:36:50.773Z,71.31
2022-12-26T16:42:04.438Z,71.53
2022-12-26T16:47:05.226Z,71.56
2022-12-26T16:52:04.034Z,71.47
2022-12-26T16:57:06.126Z,72.07
2022-12-26T17:02:03.545Z,72.14
2022-12-26T17:07:08.095Z,72.43
2022-12-26T17:12:08.190Z,72.46
2022-12-26T17:17:25.939Z,72.65
2022-12-26T17:22:34.138Z,72.82
2022-12-26T17:27:33.408Z,72.98
2022-12-26T17:32:35.514Z,72.62
2022-12-26T17:37:34.373Z,72.90
2022-12-26T17:42:43.733Z,73.07
2022-12-26T17:47:41.263Z,72.92
2022-12-26T17:52:40.938Z,73.55
2022-12-26T17:57:38.007Z,73.24
2022-12-26T18:02:36.762Z,72.85
2022-12-26T18:07:35.576Z,72.81
2022-12-26T18:12:43.487Z,73.37
2022-12-26T18:17:40.930Z,73.10
2022-12-26T18:22:38.231Z,72.94
2022-12-26T18:27:35.414Z,73.29
2022-12-26T18:32:34.162Z,73.20
2022-12-26T18:37:31.737Z,73.60
2022-12-26T18:42:31.199Z,73.50
2022-12-26T18:47:30.925Z,73.15
2022-12-26T18:52:28.690Z,73.53
2022-12-26T18:57:25.756Z,73.61
2022-12-26T19:02:22.829Z,73.75
2022-12-26T19:07:22.971Z,73.27
2022-12-26T19:12:21.558Z,73.58
2022-12-26T19:17:21.358Z,73.29
2022-12-26T19:22:18.266Z,73.06
2022-12-26T19:27:15.532Z,73.07
2022-12-26T19:32:13.185Z,72.84
2022-12-26T19:37:10.311Z,73.00
2022-12-26T19:42:07.440Z,73.31
2022-12-26T19:47:11.868Z,73.58
2022-12-26T19:52:11.004Z,73.47
2022-12-26T19:57:08.275Z,72.97
2022-12-26T20:02:10.900Z,73.46
2022-12-26T20:07:08.218Z,73.35
2022-12-26T20:12:06.241Z,73.07
2022-12-26T20:17:08.979Z,73.27
2022-12-26T20:22:12.692Z,73.29
2022-12-26T20:27:17.188Z,73.37
2022-12-26T20:32:14.106Z,73.97
2022-12-26T20:37:11.165Z,73.28
2022-12-26T20:42:08.263Z,73.76
2022-12-26T20:47:06.242Z,74.07
2022-12-26T20:52:03.601Z,73.85
2022-12-26T20:57:02.423Z,73.76
2022-12-26T21:01:59.500Z,74.12
2022-12-26T21:06:58.950Z,73.50
2022-12-26T21:11:56.103Z,73.20
2022-12-26T21:16:56.635Z,73.28
2022-12-26T21:21:58.211Z,73.01
2022-12-26T21:27:24.099Z,73.29
2022-12-26T21:32:21.076Z,73.51
2022-12-26T21:37:36.657Z,73.58
2022-12-26T21:42:33.591Z,73.13
2022-12-26T21:47:30.504Z,72.78
2022-12-26T21:52:28.012Z,73.12
2022-12-26T21:57:25.316Z,72.74
2022-12-26T22:02:43.324Z,73.16
2022-12-26T22:07:41.390Z,72.87
2022-12-26T22:12:56.308Z,73.53
2022-12-26T22:17:58.997Z,72.84
2022-12-26T22:22:56.632Z,72.40
2022-12-26T22:27:53.536Z,72.73
2022-12-26T22:32:50.502Z,72.86
2022-12-26T22:37:47.411Z,72.38
2022-12-26T22:42:45.073Z,72.18
2022-12-26T22:47:42.119Z,72.30
2022-12-26T22:52:39.062Z,72.10
2022-12-26T22:57:36.481Z,72.14
2022-12-26T23:02:34.361Z,72.29
2022-12-26T23:07:33.358Z,72.42
2022-12-26T23:12:46.037Z,71.90
2022-12-26T23:18:06.420Z,72.31
2022-12-26T23:23:03.813Z,72.52
2022-12-26T23:28:18.415Z,72.25
2022-12-26T23:33:15.986Z,72.02
2022-12-26T23:38:12.898Z,72.58
2022-12-26T23:43:09.868Z,72.24
2022-12-26T23:48:06.727Z,71.94
2022-12-26T23:53:04.569Z,72.38
2022-12-26T23:58:01.379Z,72.81
